FMMI Airport Information

Runway Information
Runway 11 Length 10171 ft width 148 ft Elevation 4197 ft Threshold N/A Heading 99
Runway 29 Length 10171 ft Width 148 ft Elevation 4117 ft Threshold N/A Heading 279
Airport Frequencies
Type TWR Name TWR Frequency 120.1 MHZ
Airport Navaids
Type VOR-DME Name Ivato Frequency 114500 KHZ
Airport Weather Information & NOTAM
ADDS - METARS form results

(1540 UTC 07 December 2022)
Data provider http://aviationweather.gov/metar/data/
 
METAR text: FMMI 071530Z 11013KT 9999 FEW017CB 21/14 Q1020 NOSIG
Conditions at: FMMI (ANTANANARIVO/IVA, MG) observed 1530 UTC 07 December 2022
Temperature: 21.0°C (70°F)
Dewpoint: 14.0°C (57°F) [RH = 64%]
Pressure (altimeter): 30.12 inches Hg (1020.0 mb)
Winds: from the ESE (110 degrees) at 15 MPH (13 knots; 6.7 m/s)
Visibility: 6 or more miles (10+ km)
Ceiling: at least 12,000 feet AGL
Clouds: few clouds at 1700 feet AGL
Weather: no significant weather observed at this time

METAR text: FMMI 071500Z 11013KT 9999 FEW020 22/14 Q1019 NOSIG
Conditions at: FMMI (ANTANANARIVO/IVA, MG) observed 1500 UTC 07 December 2022
Temperature: 22.0°C (72°F)
Dewpoint: 14.0°C (57°F) [RH = 60%]
Pressure (altimeter): 30.09 inches Hg (1019.0 mb)
Winds: from the ESE (110 degrees) at 15 MPH (13 knots; 6.7 m/s)
Visibility: 6 or more miles (10+ km)
Ceiling: at least 12,000 feet AGL
Clouds: few clouds at 2000 feet AGL
Weather: no significant weather observed at this time

Forecast for: FMMI (ANTANANARIVO/IVA, MG)
Text: TAF FMMI 071100Z 0712/0818 13010KT 9999 SCT020CB
Forecast period: 1200 to 1700 UTC 07 December 2022
Forecast type: FROM: standard forecast or significant change
Winds: from the SE (130 degrees) at 12 MPH (10 knots; 5.1 m/s)
Visibility: 6 or more miles (10+ km)
Ceiling: at least 12,000 feet AGL
Clouds: scattered clouds at 2000 feet AGL
Weather: no significant weather forecast for this period
Text: BECMG 0717/0720 FEW007 BKN020
Forecast period: 1700 UTC 07 December 2022 to 1000 UTC 08 December 2022
Forecast type: BECOMING: Conditions expected to become as follows by 2000 UTC 07 December 2022
Winds: from the SE (130 degrees) at 12 MPH (10 knots; 5.1 m/s)
Visibility: 6 or more miles (10+ km)
Ceiling: 2000 feet AGL
Clouds: few clouds at 700 feet AGL
broken clouds at 2000 feet AGL
Weather: no significant weather forecast for this period
Text: PROB30
Forecast period: 0900 to 1500 UTC 08 December 2022
Forecast type: TEMPORARY: The following changes expected for less than half the time period
Visibility: 2.80 miles (4.51 km)
Ceiling: unknown
Clouds: missing
Weather: RA  (moderate rain)
Text: TEMPO 0809/0815 4500 RA
Forecast period: 1000 to 1800 UTC 08 December 2022
Forecast type: BECOMING: Conditions expected to become as follows by 1300 UTC 08 December 2022
Winds: from the SE (130 degrees) at 12 MPH (10 knots; 5.1 m/s)
Visibility: 6 or more miles (10+ km)
Ceiling: 2000 feet AGL
Clouds: few clouds at 1700 feet AGL
broken clouds at 2000 feet AGL
Weather: no significant weather forecast for this period